sensor_id;sensor_type;location;lat;lon;timestamp;P1;durP1;ratioP1;P2;durP2;ratioP2
15104;SDS011;7653;48.994;9.212;2023-08-08T00:02:15;2.33;;;2.10;;
15104;SDS011;7653;48.994;9.212;2023-08-08T00:04:41;2.43;;;2.07;;
15104;SDS011;7653;48.994;9.212;2023-08-08T00:07:07;2.73;;;2.10;;
15104;SDS011;7653;48.994;9.212;2023-08-08T00:09:32;2.60;;;1.83;;
15104;SDS011;7653;48.994;9.212;2023-08-08T00:11:58;2.77;;;1.90;;
15104;SDS011;7653;48.994;9.212;2023-08-08T00:14:24;1.70;;;1.60;;
15104;SDS011;7653;48.994;9.212;2023-08-08T00:16:50;3.10;;;1.80;;
15104;SDS011;7653;48.994;9.212;2023-08-08T00:19:15;4.67;;;1.80;;
15104;SDS011;7653;48.994;9.212;2023-08-08T00:21:41;1.93;;;1.60;;
15104;SDS011;7653;48.994;9.212;2023-08-08T00:24:07;4.27;;;1.93;;
15104;SDS011;7653;48.994;9.212;2023-08-08T00:26:32;2.00;;;1.80;;
15104;SDS011;7653;48.994;9.212;2023-08-08T00:28:58;3.27;;;2.13;;
15104;SDS011;7653;48.994;9.212;2023-08-08T00:31:24;2.17;;;1.97;;
15104;SDS011;7653;48.994;9.212;2023-08-08T00:33:49;3.00;;;2.00;;
15104;SDS011;7653;48.994;9.212;2023-08-08T00:36:15;4.80;;;1.90;;
15104;SDS011;7653;48.994;9.212;2023-08-08T00:38:41;2.80;;;2.07;;
15104;SDS011;7653;48.994;9.212;2023-08-08T00:41:06;2.00;;;1.77;;
15104;SDS011;7653;48.994;9.212;2023-08-08T00:43:32;5.40;;;1.90;;
15104;SDS011;7653;48.994;9.212;2023-08-08T00:45:57;2.07;;;1.80;;
15104;SDS011;7653;48.994;9.212;2023-08-08T00:48:23;4.77;;;2.13;;
15104;SDS011;7653;48.994;9.212;2023-08-08T00:50:49;2.70;;;1.80;;
15104;SDS011;7653;48.994;9.212;2023-08-08T00:53:16;2.30;;;1.90;;
15104;SDS011;7653;48.994;9.212;2023-08-08T00:55:44;2.73;;;1.97;;
15104;SDS011;7653;48.994;9.212;2023-08-08T00:58:10;4.40;;;2.03;;
15104;SDS011;7653;48.994;9.212;2023-08-08T01:00:36;3.07;;;2.00;;
15104;SDS011;7653;48.994;9.212;2023-08-08T01:03:02;3.13;;;1.90;;
15104;SDS011;7653;48.994;9.212;2023-08-08T01:05:29;4.77;;;2.03;;
15104;SDS011;7653;48.994;9.212;2023-08-08T01:08:05;3.33;;;2.20;;
15104;SDS011;7653;48.994;9.212;2023-08-08T01:10:37;2.43;;;1.97;;
15104;SDS011;7653;48.994;9.212;2023-08-08T01:13:07;3.90;;;2.00;;
15104;SDS011;7653;48.994;9.212;2023-08-08T01:15:36;6.03;;;2.13;;
15104;SDS011;7653;48.994;9.212;2023-08-08T01:18:05;3.17;;;1.90;;
15104;SDS011;7653;48.994;9.212;2023-08-08T01:20:33;3.27;;;2.00;;
15104;SDS011;7653;48.994;9.212;2023-08-08T01:23:16;3.20;;;2.17;;
15104;SDS011;7653;48.994;9.212;2023-08-08T01:26:01;2.90;;;2.00;;
15104;SDS011;7653;48.994;9.212;2023-08-08T01:28:27;2.37;;;1.93;;
15104;SDS011;7653;48.994;9.212;2023-08-08T01:30:53;2.67;;;2.03;;
15104;SDS011;7653;48.994;9.212;2023-08-08T01:33:19;4.87;;;2.17;;
15104;SDS011;7653;48.994;9.212;2023-08-08T01:35:46;3.30;;;1.93;;
15104;SDS011;7653;48.994;9.212;2023-08-08T01:38:20;2.00;;;1.80;;
15104;SDS011;7653;48.994;9.212;2023-08-08T01:40:51;2.43;;;2.00;;
15104;SDS011;7653;48.994;9.212;2023-08-08T01:43:16;2.73;;;2.10;;
15104;SDS011;7653;48.994;9.212;2023-08-08T01:45:43;2.97;;;2.03;;
15104;SDS011;7653;48.994;9.212;2023-08-08T01:48:10;2.03;;;1.83;;
15104;SDS011;7653;48.994;9.212;2023-08-08T01:50:36;4.47;;;1.63;;
15104;SDS011;7653;48.994;9.212;2023-08-08T01:53:03;2.30;;;2.10;;
15104;SDS011;7653;48.994;9.212;2023-08-08T01:55:30;4.57;;;1.80;;
15104;SDS011;7653;48.994;9.212;2023-08-08T01:57:56;2.73;;;1.83;;
15104;SDS011;7653;48.994;9.212;2023-08-08T02:00:21;2.37;;;2.10;;
15104;SDS011;7653;48.994;9.212;2023-08-08T02:02:47;1.80;;;1.70;;
15104;SDS011;7653;48.994;9.212;2023-08-08T02:05:13;2.37;;;1.97;;
15104;SDS011;7653;48.994;9.212;2023-08-08T02:07:39;2.03;;;1.77;;
15104;SDS011;7653;48.994;9.212;2023-08-08T02:10:05;2.43;;;1.87;;
15104;SDS011;7653;48.994;9.212;2023-08-08T02:12:31;4.43;;;2.20;;
15104;SDS011;7653;48.994;9.212;2023-08-08T02:14:57;2.53;;;1.90;;
15104;SDS011;7653;48.994;9.212;2023-08-08T02:17:24;3.77;;;1.80;;
15104;SDS011;7653;48.994;9.212;2023-08-08T02:19:51;2.10;;;1.43;;
15104;SDS011;7653;48.994;9.212;2023-08-08T02:22:17;2.80;;;1.67;;
15104;SDS011;7653;48.994;9.212;2023-08-08T02:24:43;3.97;;;1.63;;
15104;SDS011;7653;48.994;9.212;2023-08-08T02:27:09;2.10;;;1.60;;
15104;SDS011;7653;48.994;9.212;2023-08-08T02:29:34;2.03;;;1.60;;
15104;SDS011;7653;48.994;9.212;2023-08-08T02:32:00;2.90;;;1.80;;
15104;SDS011;7653;48.994;9.212;2023-08-08T02:34:26;2.60;;;1.77;;
15104;SDS011;7653;48.994;9.212;2023-08-08T02:36:51;2.80;;;1.70;;
15104;SDS011;7653;48.994;9.212;2023-08-08T02:39:17;2.73;;;1.63;;
15104;SDS011;7653;48.994;9.212;2023-08-08T02:41:43;2.70;;;1.60;;
15104;SDS011;7653;48.994;9.212;2023-08-08T02:44:08;1.53;;;1.43;;
15104;SDS011;7653;48.994;9.212;2023-08-08T02:46:35;3.03;;;2.00;;
15104;SDS011;7653;48.994;9.212;2023-08-08T02:49:03;2.10;;;1.77;;
15104;SDS011;7653;48.994;9.212;2023-08-08T02:51:29;4.17;;;2.00;;
15104;SDS011;7653;48.994;9.212;2023-08-08T02:53:55;2.50;;;1.90;;
15104;SDS011;7653;48.994;9.212;2023-08-08T02:56:20;2.77;;;1.93;;
15104;SDS011;7653;48.994;9.212;2023-08-08T02:58:46;2.83;;;1.77;;
15104;SDS011;7653;48.994;9.212;2023-08-08T03:01:12;2.07;;;1.87;;
15104;SDS011;7653;48.994;9.212;2023-08-08T03:03:41;1.90;;;1.80;;
15104;SDS011;7653;48.994;9.212;2023-08-08T03:06:07;2.90;;;1.83;;
15104;SDS011;7653;48.994;9.212;2023-08-08T03:08:33;3.73;;;1.80;;
15104;SDS011;7653;48.994;9.212;2023-08-08T03:10:59;4.23;;;1.77;;
15104;SDS011;7653;48.994;9.212;2023-08-08T03:13:25;3.50;;;2.10;;
15104;SDS011;7653;48.994;9.212;2023-08-08T03:15:51;1.83;;;1.70;;
15104;SDS011;7653;48.994;9.212;2023-08-08T03:18:17;2.20;;;2.00;;
15104;SDS011;7653;48.994;9.212;2023-08-08T03:20:43;4.00;;;2.10;;
15104;SDS011;7653;48.994;9.212;2023-08-08T03:23:08;2.03;;;1.83;;
15104;SDS011;7653;48.994;9.212;2023-08-08T03:25:34;2.63;;;1.90;;
15104;SDS011;7653;48.994;9.212;2023-08-08T03:28:00;2.90;;;1.80;;
15104;SDS011;7653;48.994;9.212;2023-08-08T03:30:25;2.80;;;1.90;;
15104;SDS011;7653;48.994;9.212;2023-08-08T03:32:51;2.73;;;1.70;;
15104;SDS011;7653;48.994;9.212;2023-08-08T03:35:17;2.00;;;1.80;;
15104;SDS011;7653;48.994;9.212;2023-08-08T03:37:42;3.30;;;2.13;;
15104;SDS011;7653;48.994;9.212;2023-08-08T03:40:08;3.20;;;2.03;;
15104;SDS011;7653;48.994;9.212;2023-08-08T03:42:34;3.50;;;2.00;;
15104;SDS011;7653;48.994;9.212;2023-08-08T03:45:00;3.37;;;2.07;;
15104;SDS011;7653;48.994;9.212;2023-08-08T03:47:26;2.87;;;1.80;;
15104;SDS011;7653;48.994;9.212;2023-08-08T03:49:53;2.20;;;1.97;;
15104;SDS011;7653;48.994;9.212;2023-08-08T03:52:22;3.80;;;2.30;;
15104;SDS011;7653;48.994;9.212;2023-08-08T03:54:48;3.23;;;2.10;;
15104;SDS011;7653;48.994;9.212;2023-08-08T03:57:14;3.47;;;1.97;;
15104;SDS011;7653;48.994;9.212;2023-08-08T03:59:40;2.33;;;1.83;;
15104;SDS011;7653;48.994;9.212;2023-08-08T04:02:05;3.80;;;2.30;;
15104;SDS011;7653;48.994;9.212;2023-08-08T04:04:31;3.90;;;2.10;;
15104;SDS011;7653;48.994;9.212;2023-08-08T04:06:57;3.20;;;2.00;;
15104;SDS011;7653;48.994;9.212;2023-08-08T04:09:22;4.40;;;2.03;;
15104;SDS011;7653;48.994;9.212;2023-08-08T04:11:48;2.47;;;1.83;;
15104;SDS011;7653;48.994;9.212;2023-08-08T04:14:14;2.63;;;1.90;;
15104;SDS011;7653;48.994;9.212;2023-08-08T04:16:39;2.10;;;1.90;;
15104;SDS011;7653;48.994;9.212;2023-08-08T04:19:05;3.03;;;2.00;;
15104;SDS011;7653;48.994;9.212;2023-08-08T04:21:31;2.40;;;2.10;;
15104;SDS011;7653;48.994;9.212;2023-08-08T04:23:59;4.30;;;2.00;;
15104;SDS011;7653;48.994;9.212;2023-08-08T04:26:25;2.93;;;1.97;;
15104;SDS011;7653;48.994;9.212;2023-08-08T04:28:51;3.83;;;2.07;;
15104;SDS011;7653;48.994;9.212;2023-08-08T04:31:17;3.80;;;2.00;;
15104;SDS011;7653;48.994;9.212;2023-08-08T04:33:43;4.03;;;1.90;;
15104;SDS011;7653;48.994;9.212;2023-08-08T04:36:09;2.00;;;1.60;;
15104;SDS011;7653;48.994;9.212;2023-08-08T04:38:34;2.87;;;1.77;;
15104;SDS011;7653;48.994;9.212;2023-08-08T04:41:00;2.63;;;1.80;;
15104;SDS011;7653;48.994;9.212;2023-08-08T04:43:26;3.60;;;1.73;;
15104;SDS011;7653;48.994;9.212;2023-08-08T04:45:53;1.90;;;1.70;;
15104;SDS011;7653;48.994;9.212;2023-08-08T04:48:19;2.17;;;1.93;;
15104;SDS011;7653;48.994;9.212;2023-08-08T04:50:46;3.47;;;1.80;;
15104;SDS011;7653;48.994;9.212;2023-08-08T04:53:12;3.00;;;1.90;;
15104;SDS011;7653;48.994;9.212;2023-08-08T04:55:38;2.67;;;1.73;;
15104;SDS011;7653;48.994;9.212;2023-08-08T04:58:04;3.00;;;1.80;;
15104;SDS011;7653;48.994;9.212;2023-08-08T05:00:30;4.57;;;1.77;;
15104;SDS011;7653;48.994;9.212;2023-08-08T05:02:56;2.30;;;1.83;;
15104;SDS011;7653;48.994;9.212;2023-08-08T05:05:22;3.13;;;1.87;;
15104;SDS011;7653;48.994;9.212;2023-08-08T05:07:47;1.80;;;1.70;;
15104;SDS011;7653;48.994;9.212;2023-08-08T05:10:13;2.43;;;1.80;;
15104;SDS011;7653;48.994;9.212;2023-08-08T05:12:39;1.90;;;1.70;;
15104;SDS011;7653;48.994;9.212;2023-08-08T05:15:05;2.90;;;1.67;;
15104;SDS011;7653;48.994;9.212;2023-08-08T05:17:31;1.97;;;1.63;;
15104;SDS011;7653;48.994;9.212;2023-08-08T05:19:59;2.70;;;1.73;;
15104;SDS011;7653;48.994;9.212;2023-08-08T05:22:25;1.57;;;1.47;;
15104;SDS011;7653;48.994;9.212;2023-08-08T05:24:51;4.47;;;1.70;;
15104;SDS011;7653;48.994;9.212;2023-08-08T05:27:17;2.87;;;1.70;;
15104;SDS011;7653;48.994;9.212;2023-08-08T05:29:42;3.13;;;1.70;;
15104;SDS011;7653;48.994;9.212;2023-08-08T05:32:08;4.23;;;1.87;;
15104;SDS011;7653;48.994;9.212;2023-08-08T05:34:34;3.90;;;1.80;;
15104;SDS011;7653;48.994;9.212;2023-08-08T05:37:00;5.03;;;1.60;;
15104;SDS011;7653;48.994;9.212;2023-08-08T05:39:25;3.10;;;1.70;;
15104;SDS011;7653;48.994;9.212;2023-08-08T05:41:51;2.43;;;1.60;;
15104;SDS011;7653;48.994;9.212;2023-08-08T05:44:17;1.83;;;1.57;;
15104;SDS011;7653;48.994;9.212;2023-08-08T05:46:43;2.50;;;1.50;;
15104;SDS011;7653;48.994;9.212;2023-08-08T05:49:09;2.03;;;1.70;;
15104;SDS011;7653;48.994;9.212;2023-08-08T05:51:35;2.13;;;1.70;;
15104;SDS011;7653;48.994;9.212;2023-08-08T05:54:00;2.70;;;1.90;;
15104;SDS011;7653;48.994;9.212;2023-08-08T05:56:35;2.77;;;1.90;;
15104;SDS011;7653;48.994;9.212;2023-08-08T05:59:02;3.37;;;1.83;;
15104;SDS011;7653;48.994;9.212;2023-08-08T06:01:29;4.03;;;2.00;;
15104;SDS011;7653;48.994;9.212;2023-08-08T06:03:55;1.80;;;1.70;;
15104;SDS011;7653;48.994;9.212;2023-08-08T06:06:23;2.53;;;1.73;;
15104;SDS011;7653;48.994;9.212;2023-08-08T06:08:48;4.03;;;1.53;;
15104;SDS011;7653;48.994;9.212;2023-08-08T06:11:14;2.50;;;1.70;;
15104;SDS011;7653;48.994;9.212;2023-08-08T06:13:40;3.93;;;1.80;;
15104;SDS011;7653;48.994;9.212;2023-08-08T06:16:06;2.73;;;1.73;;
15104;SDS011;7653;48.994;9.212;2023-08-08T06:18:32;2.73;;;1.60;;
15104;SDS011;7653;48.994;9.212;2023-08-08T06:20:58;2.80;;;1.80;;
15104;SDS011;7653;48.994;9.212;2023-08-08T06:23:24;3.07;;;1.60;;
15104;SDS011;7653;48.994;9.212;2023-08-08T06:25:50;3.53;;;1.70;;
15104;SDS011;7653;48.994;9.212;2023-08-08T06:28:15;2.57;;;1.57;;
15104;SDS011;7653;48.994;9.212;2023-08-08T06:30:41;2.50;;;1.70;;
15104;SDS011;7653;48.994;9.212;2023-08-08T06:33:10;2.07;;;1.60;;
15104;SDS011;7653;48.994;9.212;2023-08-08T06:35:39;2.20;;;1.40;;
15104;SDS011;7653;48.994;9.212;2023-08-08T06:38:04;2.00;;;1.43;;
15104;SDS011;7653;48.994;9.212;2023-08-08T06:40:30;1.53;;;1.40;;
15104;SDS011;7653;48.994;9.212;2023-08-08T06:42:57;1.40;;;1.17;;
15104;SDS011;7653;48.994;9.212;2023-08-08T06:45:23;2.27;;;1.40;;
15104;SDS011;7653;48.994;9.212;2023-08-08T06:47:49;1.60;;;1.20;;
15104;SDS011;7653;48.994;9.212;2023-08-08T06:50:15;3.37;;;1.27;;
15104;SDS011;7653;48.994;9.212;2023-08-08T06:52:40;1.40;;;1.30;;
15104;SDS011;7653;48.994;9.212;2023-08-08T06:55:06;2.70;;;1.33;;
15104;SDS011;7653;48.994;9.212;2023-08-08T06:57:33;2.33;;;1.40;;
15104;SDS011;7653;48.994;9.212;2023-08-08T06:59:59;2.40;;;1.30;;
15104;SDS011;7653;48.994;9.212;2023-08-08T07:02:25;2.60;;;1.40;;
15104;SDS011;7653;48.994;9.212;2023-08-08T07:04:50;1.93;;;1.20;;
15104;SDS011;7653;48.994;9.212;2023-08-08T07:07:16;2.40;;;1.00;;
15104;SDS011;7653;48.994;9.212;2023-08-08T07:09:42;1.87;;;1.00;;
15104;SDS011;7653;48.994;9.212;2023-08-08T07:12:08;0.70;;;0.53;;
15104;SDS011;7653;48.994;9.212;2023-08-08T07:14:34;3.30;;;1.00;;
15104;SDS011;7653;48.994;9.212;2023-08-08T07:17:00;1.83;;;1.33;;
15104;SDS011;7653;48.994;9.212;2023-08-08T07:19:28;2.17;;;1.10;;
15104;SDS011;7653;48.994;9.212;2023-08-08T07:21:53;2.53;;;1.30;;
15104;SDS011;7653;48.994;9.212;2023-08-08T07:24:19;1.53;;;1.00;;
15104;SDS011;7653;48.994;9.212;2023-08-08T07:26:45;1.37;;;1.13;;
15104;SDS011;7653;48.994;9.212;2023-08-08T07:29:11;2.03;;;0.90;;
15104;SDS011;7653;48.994;9.212;2023-08-08T07:31:37;1.83;;;1.40;;
15104;SDS011;7653;48.994;9.212;2023-08-08T07:34:03;2.07;;;1.30;;
15104;SDS011;7653;48.994;9.212;2023-08-08T07:36:28;1.83;;;1.23;;
15104;SDS011;7653;48.994;9.212;2023-08-08T07:38:54;2.27;;;1.07;;
15104;SDS011;7653;48.994;9.212;2023-08-08T07:41:25;2.43;;;1.33;;
15104;SDS011;7653;48.994;9.212;2023-08-08T07:43:52;1.10;;;0.90;;
15104;SDS011;7653;48.994;9.212;2023-08-08T07:46:17;3.00;;;1.20;;
15104;SDS011;7653;48.994;9.212;2023-08-08T07:48:43;1.60;;;1.10;;
15104;SDS011;7653;48.994;9.212;2023-08-08T07:51:09;1.97;;;1.07;;
15104;SDS011;7653;48.994;9.212;2023-08-08T07:53:34;2.60;;;1.30;;
15104;SDS011;7653;48.994;9.212;2023-08-08T07:56:00;1.37;;;1.00;;
15104;SDS011;7653;48.994;9.212;2023-08-08T07:58:26;0.97;;;0.97;;
15104;SDS011;7653;48.994;9.212;2023-08-08T08:00:52;1.80;;;1.10;;
15104;SDS011;7653;48.994;9.212;2023-08-08T08:03:18;1.17;;;0.80;;
15104;SDS011;7653;48.994;9.212;2023-08-08T08:05:45;0.97;;;0.87;;
15104;SDS011;7653;48.994;9.212;2023-08-08T08:08:11;2.50;;;1.20;;
15104;SDS011;7653;48.994;9.212;2023-08-08T08:10:36;1.00;;;0.90;;
15104;SDS011;7653;48.994;9.212;2023-08-08T08:13:02;1.13;;;0.80;;
15104;SDS011;7653;48.994;9.212;2023-08-08T08:15:28;1.93;;;1.30;;
15104;SDS011;7653;48.994;9.212;2023-08-08T08:17:53;4.47;;;1.10;;
15104;SDS011;7653;48.994;9.212;2023-08-08T08:20:19;1.87;;;1.20;;
15104;SDS011;7653;48.994;9.212;2023-08-08T08:22:45;1.07;;;0.93;;
15104;SDS011;7653;48.994;9.212;2023-08-08T08:25:11;2.30;;;0.90;;
15104;SDS011;7653;48.994;9.212;2023-08-08T08:27:38;1.70;;;0.93;;
15104;SDS011;7653;48.994;9.212;2023-08-08T08:30:04;2.23;;;1.27;;
15104;SDS011;7653;48.994;9.212;2023-08-08T08:32:35;4.50;;;1.10;;
15104;SDS011;7653;48.994;9.212;2023-08-08T08:35:01;1.60;;;1.10;;
15104;SDS011;7653;48.994;9.212;2023-08-08T08:37:29;1.20;;;0.90;;
15104;SDS011;7653;48.994;9.212;2023-08-08T08:39:55;3.90;;;1.30;;
15104;SDS011;7653;48.994;9.212;2023-08-08T08:42:21;1.80;;;1.10;;
15104;SDS011;7653;48.994;9.212;2023-08-08T08:44:47;0.97;;;0.47;;
15104;SDS011;7653;48.994;9.212;2023-08-08T08:47:14;2.67;;;0.90;;
15104;SDS011;7653;48.994;9.212;2023-08-08T08:49:42;3.63;;;1.20;;
15104;SDS011;7653;48.994;9.212;2023-08-08T08:52:10;3.60;;;1.00;;
15104;SDS011;7653;48.994;9.212;2023-08-08T08:54:37;1.67;;;0.97;;
15104;SDS011;7653;48.994;9.212;2023-08-08T08:57:03;0.90;;;0.57;;
15104;SDS011;7653;48.994;9.212;2023-08-08T08:59:30;1.40;;;0.60;;
15104;SDS011;7653;48.994;9.212;2023-08-08T09:01:56;1.10;;;1.00;;
15104;SDS011;7653;48.994;9.212;2023-08-08T09:04:22;2.00;;;1.03;;
15104;SDS011;7653;48.994;9.212;2023-08-08T09:06:48;3.93;;;1.00;;
15104;SDS011;7653;48.994;9.212;2023-08-08T09:09:15;2.43;;;1.00;;
15104;SDS011;7653;48.994;9.212;2023-08-08T09:11:50;2.30;;;1.00;;
15104;SDS011;7653;48.994;9.212;2023-08-08T09:14:23;1.63;;;1.00;;
15104;SDS011;7653;48.994;9.212;2023-08-08T09:16:50;1.30;;;0.90;;
15104;SDS011;7653;48.994;9.212;2023-08-08T09:19:21;2.47;;;1.20;;
15104;SDS011;7653;48.994;9.212;2023-08-08T09:21:48;1.27;;;0.70;;
15104;SDS011;7653;48.994;9.212;2023-08-08T09:24:15;1.77;;;0.80;;
15104;SDS011;7653;48.994;9.212;2023-08-08T09:26:41;2.17;;;0.60;;
15104;SDS011;7653;48.994;9.212;2023-08-08T09:29:07;0.80;;;0.80;;
15104;SDS011;7653;48.994;9.212;2023-08-08T09:31:34;2.20;;;0.97;;
15104;SDS011;7653;48.994;9.212;2023-08-08T09:34:01;2.40;;;1.00;;
15104;SDS011;7653;48.994;9.212;2023-08-08T09:36:28;1.80;;;0.80;;
15104;SDS011;7653;48.994;9.212;2023-08-08T09:38:54;1.77;;;0.90;;
15104;SDS011;7653;48.994;9.212;2023-08-08T09:41:20;2.33;;;0.83;;
15104;SDS011;7653;48.994;9.212;2023-08-08T09:43:47;1.50;;;1.13;;
15104;SDS011;7653;48.994;9.212;2023-08-08T09:46:14;1.47;;;0.77;;
15104;SDS011;7653;48.994;9.212;2023-08-08T09:48:41;0.87;;;0.70;;
15104;SDS011;7653;48.994;9.212;2023-08-08T09:51:08;0.80;;;0.70;;
15104;SDS011;7653;48.994;9.212;2023-08-08T09:53:34;1.03;;;0.97;;
15104;SDS011;7653;48.994;9.212;2023-08-08T09:56:03;0.70;;;0.70;;
15104;SDS011;7653;48.994;9.212;2023-08-08T09:58:30;1.77;;;0.73;;
15104;SDS011;7653;48.994;9.212;2023-08-08T10:00:56;1.50;;;0.80;;
15104;SDS011;7653;48.994;9.212;2023-08-08T10:03:22;1.50;;;0.77;;
15104;SDS011;7653;48.994;9.212;2023-08-08T10:05:48;2.30;;;1.00;;
15104;SDS011;7653;48.994;9.212;2023-08-08T10:08:14;1.83;;;1.00;;
15104;SDS011;7653;48.994;9.212;2023-08-08T10:10:41;1.33;;;0.67;;
15104;SDS011;7653;48.994;9.212;2023-08-08T10:13:09;0.70;;;0.70;;
15104;SDS011;7653;48.994;9.212;2023-08-08T10:15:39;1.67;;;0.77;;
15104;SDS011;7653;48.994;9.212;2023-08-08T10:18:05;0.70;;;0.27;;
15104;SDS011;7653;48.994;9.212;2023-08-08T10:20:31;1.23;;;0.80;;
15104;SDS011;7653;48.994;9.212;2023-08-08T10:23:01;1.33;;;1.00;;
15104;SDS011;7653;48.994;9.212;2023-08-08T10:25:28;2.47;;;1.20;;
15104;SDS011;7653;48.994;9.212;2023-08-08T10:28:05;1.47;;;0.30;;
15104;SDS011;7653;48.994;9.212;2023-08-08T10:30:46;2.53;;;0.90;;
15104;SDS011;7653;48.994;9.212;2023-08-08T10:33:23;0.50;;;0.40;;
15104;SDS011;7653;48.994;9.212;2023-08-08T10:36:08;0.70;;;0.70;;
15104;SDS011;7653;48.994;9.212;2023-08-08T10:38:45;0.80;;;0.50;;
15104;SDS011;7653;48.994;9.212;2023-08-08T10:41:20;1.10;;;0.87;;
15104;SDS011;7653;48.994;9.212;2023-08-08T10:43:51;0.67;;;0.67;;
15104;SDS011;7653;48.994;9.212;2023-08-08T10:46:27;0.70;;;0.50;;
15104;SDS011;7653;48.994;9.212;2023-08-08T10:49:00;1.57;;;0.80;;
15104;SDS011;7653;48.994;9.212;2023-08-08T10:54:03;0.87;;;0.80;;
15104;SDS011;7653;48.994;9.212;2023-08-08T10:56:36;2.03;;;1.20;;
15104;SDS011;7653;48.994;9.212;2023-08-08T10:59:11;1.10;;;1.00;;
15104;SDS011;7653;48.994;9.212;2023-08-08T11:01:47;1.00;;;0.60;;
15104;SDS011;7653;48.994;9.212;2023-08-08T11:04:20;1.67;;;1.00;;
15104;SDS011;7653;48.994;9.212;2023-08-08T11:06:48;1.23;;;0.60;;
15104;SDS011;7653;48.994;9.212;2023-08-08T11:09:15;1.43;;;0.57;;
15104;SDS011;7653;48.994;9.212;2023-08-08T11:11:42;1.10;;;0.90;;
15104;SDS011;7653;48.994;9.212;2023-08-08T11:16:38;1.57;;;0.60;;
15104;SDS011;7653;48.994;9.212;2023-08-08T11:19:04;1.47;;;1.00;;
15104;SDS011;7653;48.994;9.212;2023-08-08T11:21:33;1.23;;;0.80;;
15104;SDS011;7653;48.994;9.212;2023-08-08T11:24:00;1.27;;;0.70;;
15104;SDS011;7653;48.994;9.212;2023-08-08T11:26:27;1.03;;;0.83;;
15104;SDS011;7653;48.994;9.212;2023-08-08T11:28:56;2.10;;;0.90;;
15104;SDS011;7653;48.994;9.212;2023-08-08T11:31:23;2.23;;;1.10;;
15104;SDS011;7653;48.994;9.212;2023-08-08T11:33:50;2.93;;;0.90;;
15104;SDS011;7653;48.994;9.212;2023-08-08T11:36:15;2.03;;;0.83;;
15104;SDS011;7653;48.994;9.212;2023-08-08T11:38:42;1.73;;;0.80;;
15104;SDS011;7653;48.994;9.212;2023-08-08T11:41:08;2.60;;;1.00;;
15104;SDS011;7653;48.994;9.212;2023-08-08T11:43:38;1.10;;;0.90;;
15104;SDS011;7653;48.994;9.212;2023-08-08T11:46:09;1.87;;;0.87;;
15104;SDS011;7653;48.994;9.212;2023-08-08T11:48:38;1.83;;;1.10;;
15104;SDS011;7653;48.994;9.212;2023-08-08T11:51:04;0.60;;;0.60;;
15104;SDS011;7653;48.994;9.212;2023-08-08T11:53:31;1.30;;;1.00;;
15104;SDS011;7653;48.994;9.212;2023-08-08T11:55:57;1.20;;;0.90;;
15104;SDS011;7653;48.994;9.212;2023-08-08T11:58:24;2.10;;;1.17;;
15104;SDS011;7653;48.994;9.212;2023-08-08T12:00:50;1.10;;;0.90;;
15104;SDS011;7653;48.994;9.212;2023-08-08T12:03:17;1.53;;;0.90;;
15104;SDS011;7653;48.994;9.212;2023-08-08T12:05:46;1.50;;;0.73;;
15104;SDS011;7653;48.994;9.212;2023-08-08T12:08:13;1.50;;;0.90;;
15104;SDS011;7653;48.994;9.212;2023-08-08T12:10:46;1.90;;;1.57;;
15104;SDS011;7653;48.994;9.212;2023-08-08T12:13:15;1.13;;;0.87;;
15104;SDS011;7653;48.994;9.212;2023-08-08T12:15:42;1.47;;;0.97;;
15104;SDS011;7653;48.994;9.212;2023-08-08T12:18:07;1.13;;;0.47;;
15104;SDS011;7653;48.994;9.212;2023-08-08T12:20:33;1.80;;;1.10;;
15104;SDS011;7653;48.994;9.212;2023-08-08T12:22:59;3.57;;;1.70;;
15104;SDS011;7653;48.994;9.212;2023-08-08T12:25:25;1.87;;;0.90;;
15104;SDS011;7653;48.994;9.212;2023-08-08T12:27:51;1.87;;;1.00;;
15104;SDS011;7653;48.994;9.212;2023-08-08T12:30:17;0.50;;;0.37;;
15104;SDS011;7653;48.994;9.212;2023-08-08T12:32:42;0.77;;;0.70;;
15104;SDS011;7653;48.994;9.212;2023-08-08T12:35:08;2.47;;;0.77;;
15104;SDS011;7653;48.994;9.212;2023-08-08T12:37:34;1.60;;;0.90;;
15104;SDS011;7653;48.994;9.212;2023-08-08T12:39:59;0.83;;;0.60;;
15104;SDS011;7653;48.994;9.212;2023-08-08T12:42:27;1.60;;;1.03;;
15104;SDS011;7653;48.994;9.212;2023-08-08T12:44:53;1.57;;;0.80;;
15104;SDS011;7653;48.994;9.212;2023-08-08T12:47:19;0.70;;;0.70;;
15104;SDS011;7653;48.994;9.212;2023-08-08T12:49:46;0.57;;;0.37;;
15104;SDS011;7653;48.994;9.212;2023-08-08T12:52:12;0.50;;;0.50;;
15104;SDS011;7653;48.994;9.212;2023-08-08T12:54:38;2.00;;;0.73;;
15104;SDS011;7653;48.994;9.212;2023-08-08T12:57:04;1.50;;;0.80;;
15104;SDS011;7653;48.994;9.212;2023-08-08T12:59:30;0.70;;;0.70;;
15104;SDS011;7653;48.994;9.212;2023-08-08T13:01:55;0.83;;;0.60;;
15104;SDS011;7653;48.994;9.212;2023-08-08T13:04:21;0.50;;;0.50;;
15104;SDS011;7653;48.994;9.212;2023-08-08T13:06:47;1.60;;;0.87;;
15104;SDS011;7653;48.994;9.212;2023-08-08T13:09:16;1.63;;;0.70;;
15104;SDS011;7653;48.994;9.212;2023-08-08T13:11:42;0.93;;;0.70;;
15104;SDS011;7653;48.994;9.212;2023-08-08T13:14:07;0.77;;;0.67;;
15104;SDS011;7653;48.994;9.212;2023-08-08T13:16:33;1.27;;;0.90;;
15104;SDS011;7653;48.994;9.212;2023-08-08T13:18:58;1.03;;;0.60;;
15104;SDS011;7653;48.994;9.212;2023-08-08T13:21:25;1.20;;;1.00;;
15104;SDS011;7653;48.994;9.212;2023-08-08T13:23:50;3.30;;;1.30;;
15104;SDS011;7653;48.994;9.212;2023-08-08T13:26:16;1.07;;;0.70;;
15104;SDS011;7653;48.994;9.212;2023-08-08T13:28:41;1.17;;;1.00;;
15104;SDS011;7653;48.994;9.212;2023-08-08T13:31:08;1.10;;;0.50;;
15104;SDS011;7653;48.994;9.212;2023-08-08T13:33:33;1.37;;;0.40;;
15104;SDS011;7653;48.994;9.212;2023-08-08T13:36:00;1.37;;;0.93;;
15104;SDS011;7653;48.994;9.212;2023-08-08T13:38:26;0.97;;;0.57;;
15104;SDS011;7653;48.994;9.212;2023-08-08T13:40:51;0.73;;;0.40;;
15104;SDS011;7653;48.994;9.212;2023-08-08T13:43:18;1.60;;;0.90;;
15104;SDS011;7653;48.994;9.212;2023-08-08T13:45:44;0.93;;;0.80;;
15104;SDS011;7653;48.994;9.212;2023-08-08T13:48:09;1.70;;;0.80;;
15104;SDS011;7653;48.994;9.212;2023-08-08T13:50:35;3.90;;;0.70;;
15104;SDS011;7653;48.994;9.212;2023-08-08T13:53:01;0.30;;;0.30;;
15104;SDS011;7653;48.994;9.212;2023-08-08T13:55:26;1.50;;;0.80;;
15104;SDS011;7653;48.994;9.212;2023-08-08T13:57:52;3.30;;;0.67;;
15104;SDS011;7653;48.994;9.212;2023-08-08T14:00:26;0.70;;;0.43;;
15104;SDS011;7653;48.994;9.212;2023-08-08T14:02:52;6.43;;;0.93;;
15104;SDS011;7653;48.994;9.212;2023-08-08T14:05:17;1.17;;;0.80;;
15104;SDS011;7653;48.994;9.212;2023-08-08T14:07:44;2.23;;;0.60;;
15104;SDS011;7653;48.994;9.212;2023-08-08T14:10:09;1.80;;;0.67;;
15104;SDS011;7653;48.994;9.212;2023-08-08T14:12:35;1.13;;;0.67;;
15104;SDS011;7653;48.994;9.212;2023-08-08T14:15:01;0.40;;;0.40;;
15104;SDS011;7653;48.994;9.212;2023-08-08T14:17:27;0.63;;;0.63;;
15104;SDS011;7653;48.994;9.212;2023-08-08T14:19:53;1.00;;;0.33;;
15104;SDS011;7653;48.994;9.212;2023-08-08T14:22:18;1.10;;;0.40;;
15104;SDS011;7653;48.994;9.212;2023-08-08T14:24:44;0.43;;;0.43;;
15104;SDS011;7653;48.994;9.212;2023-08-08T14:27:10;0.60;;;0.60;;
15104;SDS011;7653;48.994;9.212;2023-08-08T14:29:35;0.90;;;0.80;;
15104;SDS011;7653;48.994;9.212;2023-08-08T14:32:01;2.17;;;0.80;;
15104;SDS011;7653;48.994;9.212;2023-08-08T14:34:30;0.57;;;0.50;;
15104;SDS011;7653;48.994;9.212;2023-08-08T14:36:57;0.70;;;0.70;;
15104;SDS011;7653;48.994;9.212;2023-08-08T14:39:23;0.90;;;0.50;;
15104;SDS011;7653;48.994;9.212;2023-08-08T14:41:49;4.07;;;0.90;;
15104;SDS011;7653;48.994;9.212;2023-08-08T14:44:15;1.33;;;0.70;;
15104;SDS011;7653;48.994;9.212;2023-08-08T14:46:41;0.70;;;0.67;;
15104;SDS011;7653;48.994;9.212;2023-08-08T14:49:07;3.37;;;0.97;;
15104;SDS011;7653;48.994;9.212;2023-08-08T14:51:33;4.00;;;0.67;;
15104;SDS011;7653;48.994;9.212;2023-08-08T14:53:59;0.97;;;0.93;;
15104;SDS011;7653;48.994;9.212;2023-08-08T14:56:25;1.50;;;1.00;;
15104;SDS011;7653;48.994;9.212;2023-08-08T14:58:51;1.03;;;0.70;;
15104;SDS011;7653;48.994;9.212;2023-08-08T15:01:17;0.80;;;0.80;;
15104;SDS011;7653;48.994;9.212;2023-08-08T15:03:43;1.60;;;0.67;;